createdAt,value
2018-09-24T00:01:32.807Z,0.10
2018-09-24T00:04:01.667Z,0.13
2018-09-24T00:06:30.498Z,0.30
2018-09-24T00:08:59.548Z,0.17
2018-09-24T00:11:28.419Z,0.40
2018-09-24T00:13:57.275Z,0.07
2018-09-24T00:16:26.103Z,0.20
2018-09-24T00:18:54.971Z,0.30
2018-09-24T00:21:23.789Z,0.37
2018-09-24T00:23:52.667Z,0.30
2018-09-24T00:26:21.491Z,0.70
2018-09-24T00:28:50.368Z,0.20
2018-09-24T00:31:19.226Z,0.30
2018-09-24T00:33:48.067Z,0.40
2018-09-24T00:36:17.026Z,0.30
2018-09-24T00:38:45.931Z,0.37
2018-09-24T00:41:14.763Z,0.50
2018-09-24T00:43:43.630Z,0.60
2018-09-24T00:46:12.463Z,0.50
2018-09-24T00:48:41.340Z,0.33
2018-09-24T00:51:10.207Z,0.40
2018-09-24T00:53:39.072Z,0.50
2018-09-24T00:56:07.891Z,0.20
2018-09-24T00:58:36.772Z,0.40
2018-09-24T01:01:05.684Z,0.50
2018-09-24T01:03:34.652Z,0.30
2018-09-24T01:08:39.647Z,0.70
2018-09-24T01:11:08.842Z,0.60
2018-09-24T01:13:38.045Z,0.40
2018-09-24T01:16:07.314Z,0.40
2018-09-24T01:18:36.478Z,0.40
2018-09-24T01:21:05.682Z,0.50
2018-09-24T01:23:34.824Z,0.43
2018-09-24T01:26:04.020Z,0.50
2018-09-24T01:28:33.197Z,0.30
2018-09-24T01:31:02.416Z,0.50
2018-09-24T01:33:31.545Z,0.40
2018-09-24T01:36:00.739Z,0.50
2018-09-24T01:38:29.907Z,0.70
2018-09-24T01:40:59.115Z,0.50
2018-09-24T01:43:28.277Z,0.37
2018-09-24T01:45:57.447Z,0.70
2018-09-24T01:48:26.609Z,0.70
2018-09-24T01:50:55.816Z,0.57
2018-09-24T01:53:25.004Z,0.50
2018-09-24T01:55:54.342Z,0.70
2018-09-24T01:58:23.519Z,0.40
2018-09-24T02:00:52.704Z,0.50
2018-09-24T02:03:21.864Z,0.50
2018-09-24T02:05:51.040Z,0.47
2018-09-24T02:08:20.259Z,0.80
2018-09-24T02:10:49.469Z,0.60
2018-09-24T02:13:18.606Z,0.83
2018-09-24T02:15:47.815Z,0.70
2018-09-24T02:18:16.954Z,0.90
2018-09-24T02:20:47.400Z,0.50
2018-09-24T02:23:17.014Z,0.70
2018-09-24T02:25:46.230Z,0.60
2018-09-24T02:28:15.543Z,0.60
2018-09-24T02:30:44.771Z,0.50
2018-09-24T02:33:14.090Z,0.60
2018-09-24T02:35:50.338Z,0.70
2018-09-24T02:38:20.214Z,0.50
2018-09-24T02:40:49.422Z,0.73
2018-09-24T02:43:24.376Z,0.70
2018-09-24T02:45:54.692Z,0.50
2018-09-24T02:48:23.902Z,0.50
2018-09-24T02:50:53.154Z,0.73
2018-09-24T02:53:22.306Z,0.70
2018-09-24T02:55:51.556Z,0.40
2018-09-24T02:58:22.173Z,0.37
2018-09-24T03:00:52.637Z,0.70
2018-09-24T03:03:21.859Z,0.70
2018-09-24T03:05:51.054Z,0.93
2018-09-24T03:08:20.239Z,0.60
2018-09-24T03:10:49.414Z,0.60
2018-09-24T03:13:18.558Z,0.80
2018-09-24T03:15:47.717Z,0.70
2018-09-24T03:18:16.889Z,0.70
2018-09-24T03:20:46.271Z,0.97
2018-09-24T03:23:18.950Z,1.00
2018-09-24T03:25:48.144Z,1.10
2018-09-24T03:28:17.305Z,1.03
2018-09-24T03:30:46.544Z,0.83
2018-09-24T03:33:15.694Z,1.00
2018-09-24T03:35:44.887Z,1.03
2018-09-24T03:38:14.021Z,0.87
2018-09-24T03:40:43.212Z,1.00
2018-09-24T03:43:12.380Z,0.87
2018-09-24T03:45:41.565Z,1.00
2018-09-24T03:48:10.817Z,1.23
2018-09-24T03:50:40.011Z,0.90
2018-09-24T03:53:09.168Z,1.20
2018-09-24T03:55:38.345Z,1.30
2018-09-24T03:58:07.502Z,1.23
2018-09-24T04:00:36.690Z,1.40
2018-09-24T04:03:05.838Z,1.10
2018-09-24T04:05:40.202Z,1.30
2018-09-24T04:08:14.484Z,1.23
2018-09-24T04:10:48.710Z,1.27
2018-09-24T04:13:23.034Z,1.30
2018-09-24T04:15:57.361Z,1.30
2018-09-24T04:18:31.601Z,1.20
2018-09-24T04:21:06.016Z,1.40
2018-09-24T04:23:40.381Z,1.53
2018-09-24T04:26:14.625Z,1.47
2018-09-24T04:28:48.764Z,1.50
2018-09-24T04:31:23.032Z,1.43
2018-09-24T04:33:57.444Z,1.63
2018-09-24T04:36:31.562Z,1.40
2018-09-24T04:39:05.744Z,1.60
2018-09-24T04:41:40.061Z,1.47
2018-09-24T04:44:14.320Z,1.60
2018-09-24T04:46:48.472Z,1.80
2018-09-24T04:49:22.678Z,1.50
2018-09-24T04:51:57.077Z,1.50
2018-09-24T04:54:31.354Z,1.83
2018-09-24T04:57:05.577Z,1.73
2018-09-24T04:59:39.872Z,1.80
2018-09-24T05:02:14.067Z,1.70
2018-09-24T05:04:48.326Z,1.80
2018-09-24T05:07:22.590Z,1.50
2018-09-24T05:09:56.887Z,1.50
2018-09-24T05:12:31.076Z,1.70
2018-09-24T05:15:05.283Z,1.83
2018-09-24T05:17:39.652Z,1.57
2018-09-24T05:20:14.014Z,1.70
2018-09-24T05:22:48.238Z,1.20
2018-09-24T05:25:22.691Z,1.97
2018-09-24T05:27:56.992Z,1.60
2018-09-24T05:30:31.393Z,1.83
2018-09-24T05:33:05.567Z,1.97
2018-09-24T05:35:39.744Z,2.00
2018-09-24T05:38:14.135Z,1.80
2018-09-24T05:40:48.455Z,1.70
2018-09-24T05:43:22.690Z,1.90
2018-09-24T05:45:57.018Z,1.87
2018-09-24T05:48:31.311Z,1.80
2018-09-24T05:51:05.647Z,1.90
2018-09-24T05:53:39.955Z,1.80
2018-09-24T05:56:14.201Z,1.93
2018-09-24T05:58:48.329Z,2.10
2018-09-24T06:01:22.526Z,1.70
2018-09-24T06:03:56.811Z,1.87
2018-09-24T06:06:30.960Z,1.80
2018-09-24T06:09:05.132Z,1.57
2018-09-24T06:11:39.600Z,2.00
2018-09-24T06:14:13.775Z,1.80
2018-09-24T06:16:48.119Z,1.57
2018-09-24T06:19:22.359Z,1.90
2018-09-24T06:21:56.557Z,1.97
2018-09-24T06:24:30.661Z,1.90
2018-09-24T06:27:05.011Z,2.60
2018-09-24T06:29:39.370Z,1.90
2018-09-24T06:32:13.727Z,2.10
2018-09-24T06:34:48.004Z,2.10
2018-09-24T06:37:22.343Z,2.13
2018-09-24T06:39:56.590Z,2.20
2018-09-24T06:42:30.782Z,2.20
2018-09-24T06:45:05.201Z,2.50
2018-09-24T06:47:39.504Z,2.17
2018-09-24T06:50:13.847Z,2.17
2018-09-24T06:52:48.134Z,2.40
2018-09-24T06:55:22.478Z,2.60
2018-09-24T06:57:56.682Z,2.80
2018-09-24T07:00:30.928Z,3.80
2018-09-24T07:03:05.137Z,2.57
2018-09-24T07:05:39.646Z,2.93
2018-09-24T07:08:13.990Z,2.73
2018-09-24T07:10:48.283Z,2.70
2018-09-24T07:13:22.580Z,2.30
2018-09-24T07:15:56.906Z,2.30
2018-09-24T07:18:31.425Z,2.40
2018-09-24T07:21:05.622Z,2.40
2018-09-24T07:23:39.778Z,2.30
2018-09-24T07:26:14.035Z,2.80
2018-09-24T07:28:48.371Z,2.40
2018-09-24T07:31:22.828Z,2.37
2018-09-24T07:33:57.172Z,2.47
2018-09-24T07:36:31.455Z,2.40
2018-09-24T07:39:05.547Z,2.10
2018-09-24T07:41:39.927Z,2.30
2018-09-24T07:44:14.328Z,2.30
2018-09-24T07:46:48.542Z,2.10
2018-09-24T07:49:22.703Z,2.40
2018-09-24T07:51:56.976Z,2.60
2018-09-24T07:54:31.111Z,2.20
2018-09-24T07:57:05.447Z,2.27
2018-09-24T07:59:39.693Z,2.07
2018-09-24T08:02:13.917Z,2.00
2018-09-24T08:04:48.249Z,2.10
2018-09-24T08:07:22.555Z,2.00
2018-09-24T08:09:56.736Z,1.97
2018-09-24T08:12:31.105Z,2.30
2018-09-24T08:15:05.390Z,1.93
2018-09-24T08:17:39.627Z,2.10
2018-09-24T08:20:14.003Z,2.60
2018-09-24T08:22:48.203Z,1.87
2018-09-24T08:25:22.523Z,2.33
2018-09-24T08:27:56.674Z,2.10
2018-09-24T08:30:30.890Z,2.63
2018-09-24T08:33:05.162Z,1.90
2018-09-24T08:35:39.318Z,2.20
2018-09-24T08:38:13.645Z,1.93
2018-09-24T08:40:47.704Z,1.93
2018-09-24T08:43:21.947Z,1.80
2018-09-24T08:45:56.300Z,1.83
2018-09-24T08:48:30.610Z,2.20
2018-09-24T08:51:04.980Z,1.83
2018-09-24T08:53:39.354Z,2.50
2018-09-24T08:56:13.713Z,2.07
2018-09-24T08:58:47.944Z,2.43
2018-09-24T09:01:22.277Z,2.17
2018-09-24T09:03:56.545Z,1.97
2018-09-24T09:06:30.936Z,1.73
2018-09-24T09:09:05.140Z,2.00
2018-09-24T09:11:39.444Z,1.97
2018-09-24T09:14:13.896Z,1.70
2018-09-24T09:16:48.276Z,1.73
2018-09-24T09:19:22.650Z,1.70
2018-09-24T09:21:56.965Z,1.80
2018-09-24T09:24:32.229Z,1.87
2018-09-24T09:27:07.392Z,2.00
2018-09-24T09:29:41.829Z,2.03
2018-09-24T09:32:16.193Z,1.90
2018-09-24T09:34:50.449Z,2.00
2018-09-24T09:37:24.780Z,1.80
2018-09-24T09:39:58.968Z,1.40
2018-09-24T09:42:33.153Z,1.50
2018-09-24T09:45:07.481Z,1.83
2018-09-24T09:47:41.639Z,1.77
2018-09-24T09:50:15.822Z,2.00
2018-09-24T09:52:50.091Z,1.27
2018-09-24T09:55:24.381Z,1.43
2018-09-24T09:57:58.472Z,1.60
2018-09-24T10:00:32.697Z,1.23
2018-09-24T10:03:06.792Z,1.47
2018-09-24T10:05:41.006Z,1.20
2018-09-24T10:08:15.324Z,1.17
2018-09-24T10:10:49.740Z,1.30
2018-09-24T10:13:24.164Z,1.73
2018-09-24T10:15:58.437Z,1.80
2018-09-24T10:18:32.935Z,1.63
2018-09-24T10:21:07.152Z,1.67
2018-09-24T10:23:41.460Z,1.50
2018-09-24T10:26:15.585Z,1.70
2018-09-24T10:28:49.952Z,1.43
2018-09-24T10:31:24.413Z,1.90
2018-09-24T10:33:58.578Z,1.40
2018-09-24T10:36:32.700Z,1.20
2018-09-24T10:39:06.857Z,1.20
2018-09-24T10:41:41.382Z,1.70
2018-09-24T10:44:15.923Z,1.30
2018-09-24T10:46:50.315Z,1.70
2018-09-24T10:49:24.612Z,1.40
2018-09-24T10:51:59.002Z,1.60
2018-09-24T10:54:33.228Z,1.23
2018-09-24T10:57:07.277Z,1.40
2018-09-24T10:59:41.447Z,1.40
2018-09-24T11:02:15.596Z,1.57
2018-09-24T11:04:49.867Z,1.27
2018-09-24T11:07:24.220Z,1.30
2018-09-24T11:09:58.400Z,1.57
2018-09-24T11:12:32.912Z,1.20
2018-09-24T11:15:07.946Z,1.33
2018-09-24T11:17:42.377Z,1.40
2018-09-24T11:20:16.466Z,1.47
2018-09-24T11:22:50.832Z,1.27
2018-09-24T11:25:25.223Z,1.20
2018-09-24T11:27:59.607Z,1.50
2018-09-24T11:30:33.930Z,1.67
2018-09-24T11:33:08.111Z,1.23
2018-09-24T11:35:42.459Z,1.63
2018-09-24T11:38:16.811Z,1.63
2018-09-24T11:40:51.244Z,1.57
2018-09-24T11:43:25.593Z,1.30
2018-09-24T11:45:59.975Z,1.40
2018-09-24T11:48:34.252Z,1.20
2018-09-24T11:51:08.680Z,1.30
2018-09-24T11:53:43.083Z,1.30
2018-09-24T11:56:17.509Z,1.23
2018-09-24T11:58:51.662Z,1.00
2018-09-24T12:01:25.995Z,1.20
2018-09-24T12:04:00.230Z,1.37
2018-09-24T12:06:34.608Z,1.30
2018-09-24T12:09:09.040Z,1.50
2018-09-24T12:11:43.286Z,1.47
2018-09-24T12:14:17.579Z,1.30
2018-09-24T12:16:51.796Z,1.37
2018-09-24T12:19:26.112Z,1.33
2018-09-24T12:22:00.354Z,1.20
2018-09-24T12:24:34.698Z,1.20
2018-09-24T12:27:08.924Z,1.23
2018-09-24T12:29:43.105Z,1.33
2018-09-24T12:32:17.508Z,1.10
2018-09-24T12:34:51.665Z,1.30
2018-09-24T12:37:25.851Z,1.37
2018-09-24T12:40:00.224Z,1.20
2018-09-24T12:42:34.434Z,1.13
2018-09-24T12:45:08.692Z,1.10
2018-09-24T12:47:43.093Z,1.20
2018-09-24T12:50:17.254Z,1.10
2018-09-24T12:52:51.600Z,1.63
2018-09-24T12:55:25.719Z,1.10
2018-09-24T12:58:00.052Z,0.90
2018-09-24T13:00:34.453Z,1.17
2018-09-24T13:03:08.654Z,1.10
2018-09-24T13:05:42.770Z,1.20
2018-09-24T13:08:17.254Z,1.10
2018-09-24T13:10:51.580Z,1.40
2018-09-24T13:13:26.025Z,1.30
2018-09-24T13:16:00.194Z,1.50
2018-09-24T13:18:34.466Z,1.30
2018-09-24T13:21:08.757Z,1.10
2018-09-24T13:23:43.024Z,1.13
2018-09-24T13:26:17.217Z,1.03
2018-09-24T13:28:51.477Z,1.20
2018-09-24T13:31:25.710Z,1.10
2018-09-24T13:34:00.083Z,1.20
2018-09-24T13:36:34.362Z,1.07
2018-09-24T13:39:08.806Z,1.37
2018-09-24T13:41:42.829Z,1.07
2018-09-24T13:44:17.216Z,1.30
2018-09-24T13:46:51.446Z,1.20
2018-09-24T13:49:25.802Z,1.20
2018-09-24T13:51:59.912Z,1.20
2018-09-24T13:54:34.231Z,1.13
2018-09-24T13:57:08.588Z,1.20
2018-09-24T13:59:42.879Z,1.20
2018-09-24T14:02:17.043Z,1.10
2018-09-24T14:04:51.255Z,1.60
2018-09-24T14:07:25.491Z,1.20
2018-09-24T14:09:59.776Z,1.40
2018-09-24T14:12:34.127Z,1.10
2018-09-24T14:15:08.227Z,1.30
2018-09-24T14:17:42.492Z,1.37
2018-09-24T14:20:16.591Z,1.37
2018-09-24T14:22:50.778Z,1.50
2018-09-24T14:25:24.937Z,1.20
2018-09-24T14:27:59.055Z,1.23
2018-09-24T14:30:33.340Z,1.57
2018-09-24T14:33:07.494Z,1.30
2018-09-24T14:35:41.920Z,1.10
2018-09-24T14:38:16.374Z,1.27
2018-09-24T14:40:50.674Z,1.10
2018-09-24T14:43:25.023Z,1.10
2018-09-24T14:45:59.133Z,1.60
2018-09-24T14:48:33.353Z,1.33
2018-09-24T14:51:07.601Z,1.40
2018-09-24T14:53:41.873Z,1.20
2018-09-24T14:56:16.244Z,1.10
2018-09-24T14:58:50.620Z,1.27
2018-09-24T15:01:24.995Z,1.40
2018-09-24T15:03:59.222Z,1.50
2018-09-24T15:06:33.422Z,1.27
2018-09-24T15:09:07.635Z,1.43
2018-09-24T15:11:41.791Z,1.17
2018-09-24T15:14:16.128Z,1.30
2018-09-24T15:16:50.284Z,1.20
2018-09-24T15:19:24.665Z,1.17
2018-09-24T15:21:58.986Z,1.20
2018-09-24T15:24:33.409Z,1.10
2018-09-24T15:27:07.797Z,1.30
2018-09-24T15:29:41.959Z,1.20
2018-09-24T15:32:16.258Z,1.20
2018-09-24T15:34:50.593Z,2.80
2018-09-24T15:37:24.943Z,1.80
2018-09-24T15:39:59.329Z,1.53
2018-09-24T15:42:33.460Z,1.30
2018-09-24T15:45:07.652Z,1.00
2018-09-24T15:47:41.787Z,1.20
2018-09-24T15:50:15.970Z,1.30
2018-09-24T15:52:50.252Z,1.17
2018-09-24T15:55:24.416Z,1.23
2018-09-24T15:57:58.803Z,1.33
2018-09-24T16:00:32.997Z,0.90
2018-09-24T16:03:07.237Z,1.17
2018-09-24T16:05:41.415Z,1.17
2018-09-24T16:08:15.765Z,1.47
2018-09-24T16:10:50.213Z,0.93
2018-09-24T16:13:24.440Z,1.27
2018-09-24T16:15:58.645Z,1.03
2018-09-24T16:18:32.774Z,1.77
2018-09-24T16:21:07.101Z,1.03
2018-09-24T16:23:42.453Z,1.00
2018-09-24T16:26:16.933Z,1.20
2018-09-24T16:28:51.287Z,1.20
2018-09-24T16:31:25.520Z,1.00
2018-09-24T16:33:59.855Z,1.30
2018-09-24T16:36:34.227Z,1.00
2018-09-24T16:39:08.434Z,0.93
2018-09-24T16:41:42.682Z,1.03
2018-09-24T16:44:16.821Z,1.00
2018-09-24T16:46:51.144Z,0.90
2018-09-24T16:49:25.348Z,0.90
2018-09-24T16:51:59.715Z,1.00
2018-09-24T16:54:33.864Z,1.33
2018-09-24T16:57:08.018Z,1.27
2018-09-24T16:59:42.358Z,1.00
2018-09-24T17:02:16.657Z,1.00
2018-09-24T17:04:50.861Z,0.77
2018-09-24T17:07:25.230Z,1.27
2018-09-24T17:09:59.622Z,1.03
2018-09-24T17:12:34.019Z,1.00
2018-09-24T17:15:08.316Z,1.03
2018-09-24T17:17:42.531Z,1.37
2018-09-24T17:20:16.957Z,1.33
2018-09-24T17:22:51.175Z,0.90
2018-09-24T17:25:25.414Z,1.40
2018-09-24T17:27:59.896Z,1.50
2018-09-24T17:30:34.116Z,1.00
2018-09-24T17:33:08.457Z,1.20
2018-09-24T17:35:42.535Z,1.30
2018-09-24T17:38:16.614Z,1.00
2018-09-24T17:40:51.015Z,1.03
2018-09-24T17:43:25.363Z,0.97
2018-09-24T17:45:59.708Z,1.40
2018-09-24T17:48:33.916Z,1.30
2018-09-24T17:51:08.214Z,1.63
2018-09-24T17:53:42.516Z,1.40
2018-09-24T17:56:16.760Z,1.20
2018-09-24T17:58:51.197Z,1.23
2018-09-24T18:01:25.521Z,0.90
2018-09-24T18:03:59.866Z,1.27
2018-09-24T18:06:33.946Z,1.30
2018-09-24T18:09:08.119Z,1.10
2018-09-24T18:11:42.212Z,1.10
2018-09-24T18:14:16.369Z,1.07
2018-09-24T18:16:50.649Z,1.20
2018-09-24T18:19:24.974Z,1.30
2018-09-24T18:21:59.451Z,1.00
2018-09-24T18:24:33.656Z,1.23
2018-09-24T18:27:07.842Z,0.90
2018-09-24T18:29:42.078Z,0.90
2018-09-24T18:32:16.450Z,1.10
2018-09-24T18:34:50.705Z,1.00
2018-09-24T18:37:24.971Z,1.00
2018-09-24T18:39:59.952Z,0.83
2018-09-24T18:42:34.343Z,0.80
2018-09-24T18:45:08.717Z,1.00
2018-09-24T18:47:42.975Z,0.97
2018-09-24T18:50:17.223Z,1.20
2018-09-24T18:52:51.629Z,0.83
2018-09-24T18:55:25.882Z,1.00
2018-09-24T18:58:00.163Z,1.10
2018-09-24T19:00:34.583Z,1.20
2018-09-24T19:03:08.848Z,0.90
2018-09-24T19:05:43.001Z,0.87
2018-09-24T19:08:17.103Z,1.30
2018-09-24T19:10:51.430Z,0.77
2018-09-24T19:13:25.624Z,0.80
2018-09-24T19:15:59.812Z,1.20
2018-09-24T19:18:34.179Z,1.17
2018-09-24T19:21:08.537Z,1.03
2018-09-24T19:23:43.412Z,1.30
2018-09-24T19:26:17.751Z,1.00
2018-09-24T19:28:52.124Z,1.07
2018-09-24T19:31:26.530Z,0.97
2018-09-24T19:34:00.904Z,0.90
2018-09-24T19:36:35.224Z,1.13
2018-09-24T19:39:09.882Z,1.07
2018-09-24T19:41:44.248Z,0.97
2018-09-24T19:44:18.660Z,1.20
2018-09-24T19:46:52.833Z,1.00
2018-09-24T19:49:27.054Z,0.90
2018-09-24T19:52:01.398Z,0.70
2018-09-24T19:54:35.739Z,1.30
2018-09-24T19:57:10.041Z,0.93
2018-09-24T19:59:44.387Z,1.03
2018-09-24T20:02:18.823Z,1.17
2018-09-24T20:04:53.217Z,0.93
2018-09-24T20:07:27.594Z,0.67
2018-09-24T20:10:01.979Z,1.20
2018-09-24T20:12:36.394Z,1.17
2018-09-24T20:15:11.111Z,0.90
2018-09-24T20:17:45.238Z,1.30
2018-09-24T20:20:19.402Z,1.10
2018-09-24T20:22:53.771Z,1.00
2018-09-24T20:25:27.919Z,1.03
2018-09-24T20:28:02.237Z,1.00
2018-09-24T20:30:36.604Z,1.13
2018-09-24T20:33:10.934Z,1.10
2018-09-24T20:35:45.226Z,1.23
2018-09-24T20:38:19.385Z,1.00
2018-09-24T20:40:53.695Z,1.07
2018-09-24T20:43:27.832Z,1.00
2018-09-24T20:46:02.088Z,1.30
2018-09-24T20:48:36.484Z,0.90
2018-09-24T20:51:10.738Z,0.97
2018-09-24T20:53:46.266Z,1.00
2018-09-24T20:56:20.504Z,1.10
2018-09-24T20:58:54.678Z,1.30
2018-09-24T21:01:29.050Z,1.00
2018-09-24T21:04:03.422Z,1.13
2018-09-24T21:06:37.722Z,1.50
2018-09-24T21:09:13.876Z,1.27
2018-09-24T21:11:48.148Z,1.70
2018-09-24T21:14:22.288Z,1.20
2018-09-24T21:16:56.475Z,1.33
2018-09-24T21:19:30.786Z,1.63
2018-09-24T21:22:05.160Z,1.60
2018-09-24T21:24:39.328Z,1.70
2018-09-24T21:27:13.564Z,1.27
2018-09-24T21:29:47.929Z,1.30
2018-09-24T21:32:22.324Z,1.10
2018-09-24T21:34:56.635Z,1.30
2018-09-24T21:37:30.878Z,1.37
2018-09-24T21:40:05.081Z,1.17
2018-09-24T21:42:39.432Z,1.37
2018-09-24T21:45:13.598Z,1.10
2018-09-24T21:47:47.718Z,1.07
2018-09-24T21:50:21.817Z,0.90
2018-09-24T21:52:56.147Z,0.97
2018-09-24T21:55:30.321Z,1.00
2018-09-24T21:58:04.575Z,1.30
2018-09-24T22:00:38.823Z,1.00
2018-09-24T22:03:13.186Z,0.97
2018-09-24T22:05:47.357Z,1.43
2018-09-24T22:08:22.639Z,1.00
2018-09-24T22:10:56.985Z,0.87
2018-09-24T22:13:32.498Z,1.10
2018-09-24T22:16:06.897Z,1.00
2018-09-24T22:18:41.125Z,1.50
2018-09-24T22:21:15.443Z,0.90
2018-09-24T22:23:50.324Z,1.10
2018-09-24T22:26:24.675Z,0.93
2018-09-24T22:28:58.962Z,1.10
2018-09-24T22:31:33.300Z,0.93
2018-09-24T22:34:07.510Z,1.00
2018-09-24T22:36:41.778Z,0.90
2018-09-24T22:39:16.058Z,0.77
2018-09-24T22:41:50.410Z,0.80
2018-09-24T22:44:24.862Z,1.10
2018-09-24T22:46:59.083Z,1.10
2018-09-24T22:49:33.396Z,0.83
2018-09-24T22:52:07.738Z,1.10
2018-09-24T22:54:42.139Z,1.10
2018-09-24T22:57:16.358Z,1.17
2018-09-24T22:59:50.563Z,0.97
2018-09-24T23:02:24.773Z,1.10
2018-09-24T23:04:59.093Z,0.90
2018-09-24T23:07:33.443Z,0.90
2018-09-24T23:10:07.667Z,1.10
2018-09-24T23:12:41.891Z,1.00
2018-09-24T23:15:16.103Z,1.20
2018-09-24T23:17:50.217Z,1.20
2018-09-24T23:20:24.410Z,1.20
2018-09-24T23:22:58.728Z,1.00
2018-09-24T23:25:32.972Z,1.37
2018-09-24T23:28:07.317Z,1.03
2018-09-24T23:30:41.662Z,1.43
2018-09-24T23:33:15.951Z,1.00
2018-09-24T23:35:50.259Z,1.00
2018-09-24T23:38:24.540Z,1.10
2018-09-24T23:40:58.868Z,0.80
2018-09-24T23:43:33.033Z,0.87
2018-09-24T23:46:07.214Z,1.00
2018-09-24T23:48:41.304Z,0.73
2018-09-24T23:51:15.647Z,0.70
2018-09-24T23:53:50.929Z,1.20
2018-09-24T23:56:25.220Z,1.00
2018-09-24T23:58:59.433Z,1.27
